Kezdőlap
METAR-TAF:

METAR-TAF

Repülőterek :

Estherville Municipal Airport

Estherville, Iowa, Amerikai Egyesült Államok

földrajzi szélesség: 43-24-04N, földrajzi hosszúság: 094-44-50W, magasság: 401 m

Jelenlegi meteorológiai megfigyelések

A jelentés 1 órával és 4 perccel ezelõtt készült, 17:52 UTC
Dél-délkeleti szél 18 kt széllökések: 28 kt
Hőmérséklet 11°C
Páratartalom 62%
Légköri nyomás 1012 hPa
Látótávolság: 16.1 km
Kevés felhő 2400 lábon

METAR: KEST 011752Z AUTO 15018G28KT 10SM FEW024 11/04 A2988 RMK AO2 PK WND 16030/1731 SLP124 T01110039 10111 20017 58012

Idő: 13:56 (18:56 UTC)


TAF: hiányzik

Meteorológiai megfigyelések és előrejelzések több, mint 4000 repülőtéren (METAR és TAF jelentéseket).

A térképen piros és sárga pontok jelzik az elérhető meteorológiai állomásokat.

Mozgassa az egeret a pont fölött, hogy megjelenjen az állomás neve.

Azután kattintson az időjárási megfigyelések és előrejelzések megtekintéséhez.

A térkép megváltoztatása: kattintson a fekete keresztel jelölt zöld gombra ráközelítéshez, a vonallal jelölt zöld gombra távolításhoz, vagy a zöld nyilakra a szomszédos térképek eléréséhez.


METAR-TAF: